createdAt,value
2019-06-15T00:02:18.868Z,24.47
2019-06-15T00:04:49.282Z,24.50
2019-06-15T00:07:19.730Z,24.46
2019-06-15T00:09:50.163Z,24.45
2019-06-15T00:12:20.641Z,24.46
2019-06-15T00:14:51.014Z,24.51
2019-06-15T00:17:21.582Z,24.42
2019-06-15T00:19:51.986Z,24.47
2019-06-15T00:22:22.425Z,24.43
2019-06-15T00:24:53.029Z,24.37
2019-06-15T00:27:23.741Z,24.36
2019-06-15T00:29:54.170Z,24.41
2019-06-15T00:32:24.508Z,24.40
2019-06-15T00:34:54.945Z,24.34
2019-06-15T00:37:25.314Z,24.31
2019-06-15T00:39:55.661Z,24.27
2019-06-15T00:42:26.356Z,24.24
2019-06-15T00:44:56.844Z,24.24
2019-06-15T00:47:27.280Z,24.22
2019-06-15T00:49:57.905Z,24.18
2019-06-15T00:52:28.234Z,24.19
2019-06-15T00:54:58.546Z,24.16
2019-06-15T00:57:28.997Z,24.20
2019-06-15T01:00:01.908Z,24.16
2019-06-15T01:02:32.311Z,24.13
2019-06-15T01:05:02.780Z,24.06
2019-06-15T01:07:33.401Z,23.94
2019-06-15T01:10:03.852Z,23.99
2019-06-15T01:12:34.323Z,23.92
2019-06-15T01:15:04.975Z,23.89
2019-06-15T01:17:35.765Z,23.77
2019-06-15T01:20:06.632Z,23.71
2019-06-15T01:22:37.363Z,23.73
2019-06-15T01:25:09.234Z,23.68
2019-06-15T01:27:40.170Z,23.68
2019-06-15T01:30:11.720Z,23.60
2019-06-15T01:32:42.146Z,23.61
2019-06-15T01:35:12.833Z,23.54
2019-06-15T01:37:43.301Z,23.53
2019-06-15T01:40:14.189Z,23.42
2019-06-15T01:42:44.925Z,23.38
2019-06-15T01:45:15.595Z,23.38
2019-06-15T01:47:46.244Z,23.32
2019-06-15T01:50:17.012Z,23.37
2019-06-15T01:52:47.769Z,23.32
2019-06-15T01:55:21.161Z,23.30
2019-06-15T01:57:50.430Z,23.30
2019-06-15T02:00:23.148Z,23.26
2019-06-15T02:02:54.512Z,23.24
2019-06-15T02:05:25.092Z,23.29
2019-06-15T02:07:55.479Z,23.30
2019-06-15T02:10:31.381Z,23.25
2019-06-15T02:13:02.063Z,23.22
2019-06-15T02:15:32.791Z,23.17
2019-06-15T02:18:03.387Z,23.09
2019-06-15T02:20:33.860Z,22.95
2019-06-15T02:23:04.162Z,22.90
2019-06-15T02:25:36.601Z,22.95
2019-06-15T02:28:07.295Z,22.92
2019-06-15T02:30:37.964Z,22.82
2019-06-15T02:33:08.332Z,22.85
2019-06-15T02:35:38.619Z,22.89
2019-06-15T02:38:09.028Z,22.91
2019-06-15T02:40:39.474Z,22.91
2019-06-15T02:43:09.800Z,22.92
2019-06-15T02:45:40.215Z,22.92
2019-06-15T02:48:10.594Z,22.96
2019-06-15T02:50:40.995Z,23.01
2019-06-15T02:53:11.445Z,22.97
2019-06-15T02:55:50.602Z,23.03
2019-06-15T02:58:14.399Z,23.08
2019-06-15T03:01:00.919Z,23.20
2019-06-15T03:03:31.454Z,23.30
2019-06-15T03:06:02.223Z,23.50
2019-06-15T03:08:32.632Z,23.54
2019-06-15T03:11:03.067Z,23.82
2019-06-15T03:13:35.186Z,24.12
2019-06-15T03:16:06.361Z,24.51
2019-06-15T03:18:36.724Z,24.87
2019-06-15T03:21:07.248Z,25.13
2019-06-15T03:23:37.607Z,25.37
2019-06-15T03:26:08.348Z,25.67
2019-06-15T03:28:38.767Z,25.78
2019-06-15T03:31:09.388Z,26.14
2019-06-15T03:33:39.719Z,26.31
2019-06-15T03:36:10.092Z,26.62
2019-06-15T03:38:40.469Z,26.71
2019-06-15T03:41:10.849Z,26.99
2019-06-15T03:43:41.188Z,27.03
2019-06-15T03:46:11.589Z,27.15
2019-06-15T03:48:42.035Z,27.27
2019-06-15T03:51:12.353Z,27.75
2019-06-15T03:53:42.879Z,27.95
2019-06-15T03:56:21.691Z,27.94
2019-06-15T03:58:45.741Z,28.27
2019-06-15T04:01:33.736Z,28.47
2019-06-15T04:04:04.060Z,28.64
2019-06-15T04:06:34.451Z,28.75
2019-06-15T04:09:06.171Z,28.71
2019-06-15T04:11:36.590Z,28.55
2019-06-15T04:14:07.207Z,28.33
2019-06-15T04:16:37.717Z,27.53
2019-06-15T04:19:08.026Z,27.59
2019-06-15T04:21:38.660Z,28.25
2019-06-15T04:24:09.186Z,28.67
2019-06-15T04:26:39.506Z,28.81
2019-06-15T04:29:09.851Z,29.22
2019-06-15T04:31:40.236Z,29.13
2019-06-15T04:34:10.799Z,29.56
2019-06-15T04:36:41.085Z,29.95
2019-06-15T04:39:11.565Z,29.95
2019-06-15T04:41:42.101Z,30.09
2019-06-15T04:44:12.438Z,30.19
2019-06-15T04:46:42.857Z,30.30
2019-06-15T04:49:13.634Z,30.81
2019-06-15T04:51:44.002Z,31.39
2019-06-15T04:54:15.433Z,31.04
2019-06-15T04:56:50.889Z,30.80
2019-06-15T04:59:17.807Z,31.15
2019-06-15T05:01:48.213Z,31.47
2019-06-15T05:04:18.563Z,31.20
2019-06-15T05:06:48.945Z,31.64
2019-06-15T05:09:19.483Z,31.68
2019-06-15T05:11:49.982Z,31.64
2019-06-15T05:14:20.298Z,31.51
2019-06-15T05:16:50.860Z,30.71
2019-06-15T05:19:21.273Z,29.48
2019-06-15T05:21:51.694Z,28.75
2019-06-15T05:24:22.171Z,28.63
2019-06-15T05:27:05.586Z,28.84
2019-06-15T05:29:24.588Z,29.76
2019-06-15T05:31:55.096Z,30.79
2019-06-15T05:34:25.503Z,31.57
2019-06-15T05:36:55.921Z,32.43
2019-06-15T05:39:26.499Z,32.79
2019-06-15T05:41:56.895Z,33.94
2019-06-15T05:44:27.242Z,34.26
2019-06-15T05:46:57.863Z,33.96
2019-06-15T05:49:28.212Z,33.58
2019-06-15T05:51:58.606Z,33.72
2019-06-15T05:54:29.242Z,34.21
2019-06-15T05:56:59.663Z,33.59
2019-06-15T05:59:30.508Z,34.24
2019-06-15T06:02:01.130Z,34.73
2019-06-15T06:04:31.521Z,34.80
2019-06-15T06:07:02.875Z,34.46
2019-06-15T06:09:33.350Z,34.20
2019-06-15T06:12:03.702Z,33.03
2019-06-15T06:14:34.121Z,31.94
2019-06-15T06:17:04.906Z,32.22
2019-06-15T06:19:35.261Z,32.79
2019-06-15T06:22:05.559Z,33.39
2019-06-15T06:24:36.058Z,32.93
2019-06-15T06:27:06.540Z,33.00
2019-06-15T06:29:36.890Z,32.02
2019-06-15T06:32:07.316Z,31.60
2019-06-15T06:34:37.729Z,31.50
2019-06-15T06:37:08.348Z,32.69
2019-06-15T06:39:38.742Z,33.56
2019-06-15T06:42:09.045Z,34.80
2019-06-15T06:44:39.561Z,35.32
2019-06-15T06:47:09.971Z,35.23
2019-06-15T06:49:56.855Z,33.10
2019-06-15T06:52:27.274Z,31.92
2019-06-15T06:54:57.681Z,31.17
2019-06-15T06:57:28.544Z,30.57
2019-06-15T06:59:59.408Z,30.34
2019-06-15T07:02:31.356Z,30.02
2019-06-15T07:05:01.750Z,29.35
2019-06-15T07:07:32.169Z,29.32
2019-06-15T07:10:02.622Z,29.10
2019-06-15T07:12:32.995Z,28.85
2019-06-15T07:15:04.845Z,28.54
2019-06-15T07:17:35.358Z,28.66
2019-06-15T07:20:06.813Z,29.07
2019-06-15T07:22:37.311Z,29.33
2019-06-15T07:25:07.962Z,29.39
2019-06-15T07:27:38.407Z,29.25
2019-06-15T07:30:11.030Z,29.22
2019-06-15T07:32:41.435Z,29.13
2019-06-15T07:35:11.933Z,29.22
2019-06-15T07:37:42.333Z,28.87
2019-06-15T07:40:13.561Z,28.69
2019-06-15T07:42:45.261Z,28.72
2019-06-15T07:45:16.020Z,29.08
2019-06-15T07:47:46.721Z,29.13
2019-06-15T07:50:17.740Z,28.93
2019-06-15T07:52:56.405Z,28.56
2019-06-15T07:55:27.520Z,28.81
2019-06-15T07:57:58.015Z,29.12
2019-06-15T08:00:28.437Z,29.13
2019-06-15T08:02:59.792Z,29.14
2019-06-15T08:05:30.195Z,29.24
2019-06-15T08:08:00.995Z,29.60
2019-06-15T08:10:31.409Z,29.50
2019-06-15T08:13:01.982Z,29.62
2019-06-15T08:15:32.402Z,29.86
2019-06-15T08:18:03.142Z,30.25
2019-06-15T08:20:35.155Z,30.25
2019-06-15T08:23:05.779Z,30.23
2019-06-15T08:25:36.317Z,30.28
2019-06-15T08:28:07.070Z,30.42
2019-06-15T08:30:42.319Z,30.75
2019-06-15T08:33:12.788Z,30.84
2019-06-15T08:35:43.123Z,30.58
2019-06-15T08:38:13.628Z,30.24
2019-06-15T08:40:44.096Z,29.95
2019-06-15T08:43:14.404Z,29.87
2019-06-15T08:45:44.810Z,30.16
2019-06-15T08:48:16.305Z,30.20
2019-06-15T08:50:46.628Z,30.27
2019-06-15T08:53:17.077Z,30.31
2019-06-15T08:55:47.431Z,30.22
2019-06-15T08:58:19.969Z,30.63
2019-06-15T09:00:50.424Z,30.40
2019-06-15T09:03:20.793Z,29.91
2019-06-15T09:05:51.128Z,30.02
2019-06-15T09:08:21.664Z,30.30
2019-06-15T09:10:53.055Z,30.15
2019-06-15T09:13:23.422Z,30.13
2019-06-15T09:15:54.537Z,30.00
2019-06-15T09:18:25.110Z,30.10
2019-06-15T09:20:55.479Z,30.41
2019-06-15T09:23:25.910Z,30.39
2019-06-15T09:25:56.541Z,30.25
2019-06-15T09:28:27.052Z,30.17
2019-06-15T09:30:57.519Z,30.35
2019-06-15T09:33:27.910Z,30.49
2019-06-15T09:35:58.236Z,30.26
2019-06-15T09:38:28.783Z,30.29
2019-06-15T09:40:59.129Z,30.21
2019-06-15T09:43:29.473Z,30.14
2019-06-15T09:45:59.942Z,30.00
2019-06-15T09:48:30.411Z,29.91
2019-06-15T09:51:00.747Z,30.03
2019-06-15T09:53:31.268Z,29.89
2019-06-15T09:56:01.687Z,29.93
2019-06-15T09:58:32.129Z,29.98
2019-06-15T10:01:02.552Z,30.25
2019-06-15T10:03:32.879Z,30.28
2019-06-15T10:06:03.204Z,30.32
2019-06-15T10:08:33.720Z,30.54
2019-06-15T10:11:04.071Z,30.66
2019-06-15T10:13:34.691Z,30.58
2019-06-15T10:16:05.177Z,30.70
2019-06-15T10:18:38.689Z,30.67
2019-06-15T10:21:07.575Z,30.30
2019-06-15T10:23:37.957Z,30.27
2019-06-15T10:26:08.475Z,30.33
2019-06-15T10:28:38.812Z,30.31
2019-06-15T10:31:09.205Z,30.34
2019-06-15T10:33:39.575Z,30.30
2019-06-15T10:36:09.939Z,29.94
2019-06-15T10:38:40.457Z,29.74
2019-06-15T10:41:11.206Z,29.68
2019-06-15T10:43:41.553Z,29.63
2019-06-15T10:46:12.081Z,29.66
2019-06-15T10:48:42.482Z,29.72
2019-06-15T10:51:12.830Z,29.70
2019-06-15T10:53:43.273Z,29.59
2019-06-15T10:56:13.681Z,29.31
2019-06-15T10:58:44.131Z,29.23
2019-06-15T11:01:14.533Z,29.31
2019-06-15T11:03:45.278Z,29.41
2019-06-15T11:06:15.617Z,29.58
2019-06-15T11:08:46.280Z,29.67
2019-06-15T11:11:23.183Z,29.63
2019-06-15T11:13:53.637Z,29.66
2019-06-15T11:16:24.043Z,29.65
2019-06-15T11:18:54.478Z,29.58
2019-06-15T11:21:25.014Z,29.54
2019-06-15T11:23:55.354Z,29.49
2019-06-15T11:26:26.078Z,29.41
2019-06-15T11:28:56.586Z,29.40
2019-06-15T11:31:26.911Z,29.46
2019-06-15T11:33:57.241Z,29.35
2019-06-15T11:36:27.621Z,29.47
2019-06-15T11:38:58.057Z,29.46
2019-06-15T11:41:28.431Z,29.49
2019-06-15T11:43:58.858Z,29.36
2019-06-15T11:46:29.275Z,29.28
2019-06-15T11:48:59.637Z,29.27
2019-06-15T11:51:30.158Z,29.43
2019-06-15T11:54:00.611Z,29.44
2019-06-15T11:56:30.975Z,29.42
2019-06-15T11:59:01.354Z,29.38
2019-06-15T12:01:31.837Z,29.29
2019-06-15T12:04:02.124Z,29.26
2019-06-15T12:06:32.565Z,29.44
2019-06-15T12:09:02.991Z,29.49
2019-06-15T12:11:33.280Z,29.39
2019-06-15T12:14:03.875Z,29.38
2019-06-15T12:16:34.379Z,29.29
2019-06-15T12:19:04.716Z,29.27
2019-06-15T12:21:35.204Z,29.24
2019-06-15T12:24:05.788Z,29.22
2019-06-15T12:26:38.368Z,29.00
2019-06-15T12:29:08.888Z,29.08
2019-06-15T12:31:39.387Z,29.13
2019-06-15T12:34:09.804Z,29.07
2019-06-15T12:36:40.307Z,29.08
2019-06-15T12:39:10.613Z,29.18
2019-06-15T12:41:40.962Z,29.29
2019-06-15T12:44:11.506Z,29.44
2019-06-15T12:46:42.025Z,29.49
2019-06-15T12:49:12.410Z,29.54
2019-06-15T12:51:42.859Z,29.47
2019-06-15T12:54:13.689Z,29.52
2019-06-15T12:56:44.079Z,29.33
2019-06-15T12:59:14.593Z,29.38
2019-06-15T13:01:45.082Z,29.52
2019-06-15T13:04:15.452Z,29.53
2019-06-15T13:06:46.291Z,29.60
2019-06-15T13:09:16.699Z,29.69
2019-06-15T13:11:47.259Z,29.75
2019-06-15T13:14:17.700Z,29.64
2019-06-15T13:16:49.025Z,29.60
2019-06-15T13:19:19.355Z,29.53
2019-06-15T13:21:49.850Z,29.56
2019-06-15T13:24:20.225Z,29.55
2019-06-15T13:26:50.640Z,29.44
2019-06-15T13:29:21.056Z,29.50
2019-06-15T13:31:51.447Z,29.50
2019-06-15T13:34:21.795Z,29.44
2019-06-15T13:36:52.257Z,29.40
2019-06-15T13:39:22.694Z,29.36
2019-06-15T13:41:52.992Z,29.20
2019-06-15T13:44:23.498Z,29.29
2019-06-15T13:46:53.821Z,29.30
2019-06-15T13:49:24.218Z,29.28
2019-06-15T13:51:54.747Z,29.27
2019-06-15T13:54:25.125Z,29.23
2019-06-15T13:56:55.599Z,29.17
2019-06-15T13:59:26.159Z,29.15
2019-06-15T14:01:56.646Z,29.11
2019-06-15T14:04:27.059Z,29.08
2019-06-15T14:06:57.500Z,29.16
2019-06-15T14:09:27.868Z,29.23
2019-06-15T14:11:58.626Z,29.20
2019-06-15T14:14:29.093Z,29.29
2019-06-15T14:16:59.408Z,29.28
2019-06-15T14:19:29.873Z,29.18
2019-06-15T14:22:00.323Z,29.18
2019-06-15T14:24:30.657Z,29.18
2019-06-15T14:27:01.508Z,29.05
2019-06-15T14:29:32.005Z,29.13
2019-06-15T14:32:02.841Z,29.14
2019-06-15T14:34:33.629Z,28.99
2019-06-15T14:37:04.085Z,28.83
2019-06-15T14:39:34.488Z,28.72
2019-06-15T14:42:04.799Z,28.62
2019-06-15T14:44:35.388Z,28.50
2019-06-15T14:47:05.831Z,28.41
2019-06-15T14:49:36.154Z,28.41
2019-06-15T14:52:06.785Z,28.48
2019-06-15T14:54:37.371Z,28.50
2019-06-15T14:57:08.152Z,28.51
2019-06-15T14:59:52.007Z,28.43
2019-06-15T15:02:14.028Z,28.43
2019-06-15T15:04:42.996Z,28.43
2019-06-15T15:07:13.367Z,28.43
2019-06-15T15:09:45.883Z,28.48
2019-06-15T15:12:16.201Z,28.52
2019-06-15T15:14:46.952Z,28.62
2019-06-15T15:17:17.463Z,28.53
2019-06-15T15:19:47.932Z,28.55
2019-06-15T15:22:18.281Z,28.63
2019-06-15T15:24:48.812Z,28.56
2019-06-15T15:27:19.230Z,28.57
2019-06-15T15:29:49.670Z,28.45
2019-06-15T15:32:27.022Z,28.36
2019-06-15T15:34:52.401Z,28.25
2019-06-15T15:37:22.722Z,28.28
2019-06-15T15:39:53.006Z,28.33
2019-06-15T15:42:26.381Z,28.22
2019-06-15T15:44:56.484Z,28.23
2019-06-15T15:47:27.667Z,28.30
2019-06-15T15:49:58.294Z,28.26
2019-06-15T15:52:28.785Z,28.39
2019-06-15T15:54:59.261Z,28.28
2019-06-15T15:57:29.590Z,28.20
2019-06-15T15:59:59.958Z,28.18
2019-06-15T16:02:44.618Z,28.08
2019-06-15T16:05:02.609Z,28.05
2019-06-15T16:07:33.071Z,27.97
2019-06-15T16:10:06.103Z,27.94
2019-06-15T16:12:36.340Z,27.96
2019-06-15T16:15:07.507Z,27.84
2019-06-15T16:17:38.254Z,27.91
2019-06-15T16:20:17.235Z,27.79
2019-06-15T16:22:48.556Z,27.82
2019-06-15T16:25:18.902Z,27.84
2019-06-15T16:27:49.377Z,27.72
2019-06-15T16:30:55.694Z,27.61
2019-06-15T16:33:04.177Z,27.56
2019-06-15T16:35:33.007Z,27.59
2019-06-15T16:38:03.511Z,27.71
2019-06-15T16:40:41.247Z,27.69
2019-06-15T16:43:11.666Z,27.54
2019-06-15T16:45:41.982Z,27.33
2019-06-15T16:48:12.927Z,27.42
2019-06-15T16:50:43.338Z,27.44
2019-06-15T16:53:13.845Z,27.50
2019-06-15T16:55:46.600Z,27.55
2019-06-15T16:58:16.462Z,27.42
2019-06-15T17:00:47.708Z,27.52
2019-06-15T17:03:24.841Z,27.40
2019-06-15T17:05:50.387Z,27.26
2019-06-15T17:08:20.762Z,27.27
2019-06-15T17:10:51.320Z,27.18
2019-06-15T17:13:21.833Z,27.13
2019-06-15T17:15:52.290Z,27.03
2019-06-15T17:18:22.790Z,26.93
2019-06-15T17:20:56.407Z,26.81
2019-06-15T17:23:27.685Z,26.78
2019-06-15T17:25:58.370Z,26.70
2019-06-15T17:28:28.693Z,26.55
2019-06-15T17:30:59.098Z,26.43
2019-06-15T17:33:37.605Z,26.35
2019-06-15T17:36:03.306Z,26.18
2019-06-15T17:38:36.667Z,26.09
2019-06-15T17:41:06.282Z,26.04
2019-06-15T17:43:36.706Z,25.95
2019-06-15T17:46:07.524Z,25.88
2019-06-15T17:48:37.796Z,25.85
2019-06-15T17:51:08.152Z,25.90
2019-06-15T17:53:38.612Z,25.96
2019-06-15T17:56:09.559Z,25.98
2019-06-15T17:58:39.902Z,25.99
2019-06-15T18:01:10.387Z,25.93
2019-06-15T18:03:50.349Z,25.94
2019-06-15T18:06:12.881Z,25.92
2019-06-15T18:08:43.409Z,25.94
2019-06-15T18:11:16.400Z,25.94
2019-06-15T18:13:47.264Z,25.89
2019-06-15T18:16:17.900Z,25.93
2019-06-15T18:18:48.358Z,25.90
2019-06-15T18:21:19.086Z,25.82
2019-06-15T18:23:49.713Z,25.90
2019-06-15T18:26:20.165Z,25.84
2019-06-15T18:28:50.495Z,25.82
2019-06-15T18:31:21.032Z,25.86
2019-06-15T18:34:08.322Z,25.81
2019-06-15T18:36:26.085Z,25.80
2019-06-15T18:38:57.543Z,25.79
2019-06-15T18:41:28.465Z,25.83
2019-06-15T18:43:58.816Z,25.76
2019-06-15T18:46:29.250Z,25.59
2019-06-15T18:48:59.602Z,25.53
2019-06-15T18:51:30.118Z,25.41
2019-06-15T18:54:00.670Z,25.40
2019-06-15T18:56:31.470Z,25.37
2019-06-15T18:59:02.058Z,25.40
2019-06-15T19:01:32.679Z,25.34
2019-06-15T19:04:03.346Z,25.23
2019-06-15T19:06:37.017Z,25.15
2019-06-15T19:09:09.713Z,25.16
2019-06-15T19:11:40.121Z,25.12
2019-06-15T19:14:10.494Z,25.08
2019-06-15T19:16:41.066Z,24.99
2019-06-15T19:19:11.766Z,24.93
2019-06-15T19:21:42.337Z,24.86
2019-06-15T19:24:13.025Z,24.87
2019-06-15T19:26:45.913Z,24.87
2019-06-15T19:29:17.086Z,24.79
2019-06-15T19:31:47.808Z,24.70
2019-06-15T19:34:18.219Z,24.72
2019-06-15T19:36:48.798Z,24.55
2019-06-15T19:39:19.179Z,24.49
2019-06-15T19:41:49.878Z,24.51
2019-06-15T19:44:21.307Z,24.56
2019-06-15T19:46:51.746Z,24.50
2019-06-15T19:49:22.254Z,24.47
2019-06-15T19:51:53.006Z,24.41
2019-06-15T19:54:26.234Z,24.37
2019-06-15T19:56:56.477Z,24.36
2019-06-15T19:59:27.007Z,24.24
2019-06-15T20:01:57.631Z,24.22
2019-06-15T20:04:27.959Z,24.31
2019-06-15T20:06:58.491Z,24.32
2019-06-15T20:09:29.018Z,24.25
2019-06-15T20:11:59.360Z,24.18
2019-06-15T20:14:29.697Z,24.15
2019-06-15T20:17:00.499Z,23.95
2019-06-15T20:19:30.864Z,23.97
2019-06-15T20:22:01.440Z,24.04
2019-06-15T20:24:32.059Z,24.03
2019-06-15T20:27:02.485Z,23.92
2019-06-15T20:29:33.376Z,23.85
2019-06-15T20:32:06.381Z,23.85
2019-06-15T20:34:37.051Z,23.90
2019-06-15T20:37:07.814Z,23.81
2019-06-15T20:39:38.273Z,23.74
2019-06-15T20:42:08.723Z,23.60
2019-06-15T20:44:39.245Z,23.44
2019-06-15T20:47:09.610Z,23.41
2019-06-15T20:49:39.926Z,23.30
2019-06-15T20:52:10.548Z,23.40
2019-06-15T20:54:40.967Z,23.31
2019-06-15T20:57:11.470Z,23.21
2019-06-15T20:59:41.986Z,23.21
2019-06-15T21:02:12.359Z,23.12
2019-06-15T21:04:42.871Z,23.05
2019-06-15T21:07:16.041Z,23.12
2019-06-15T21:09:46.764Z,23.12
2019-06-15T21:12:17.283Z,23.17
2019-06-15T21:14:47.882Z,23.09
2019-06-15T21:17:18.288Z,23.11
2019-06-15T21:19:48.720Z,23.10
2019-06-15T21:22:19.198Z,23.15
2019-06-15T21:24:50.845Z,23.14
2019-06-15T21:27:21.173Z,23.10
2019-06-15T21:29:51.698Z,23.12
2019-06-15T21:32:22.152Z,23.11
2019-06-15T21:34:52.556Z,23.13
2019-06-15T21:37:23.044Z,23.14
2019-06-15T21:39:53.381Z,23.16
2019-06-15T21:42:23.696Z,23.08
2019-06-15T21:44:56.232Z,23.08
2019-06-15T21:47:26.260Z,23.14
2019-06-15T21:49:56.604Z,23.17
2019-06-15T21:52:27.160Z,23.14
2019-06-15T21:54:57.590Z,23.20
2019-06-15T21:57:27.984Z,23.16
2019-06-15T21:59:58.732Z,23.10
2019-06-15T22:02:29.136Z,23.13
2019-06-15T22:04:59.613Z,23.10
2019-06-15T22:07:30.508Z,23.06
2019-06-15T22:10:00.896Z,23.01
2019-06-15T22:12:31.298Z,23.01
2019-06-15T22:15:01.693Z,22.95
2019-06-15T22:17:32.012Z,22.93
2019-06-15T22:20:02.348Z,22.86
2019-06-15T22:22:32.755Z,22.84
2019-06-15T22:25:03.076Z,22.82
2019-06-15T22:27:41.006Z,22.69
2019-06-15T22:30:12.091Z,22.74
2019-06-15T22:32:42.416Z,22.72
2019-06-15T22:35:13.107Z,22.73
2019-06-15T22:37:43.457Z,22.70
2019-06-15T22:40:16.388Z,22.73
2019-06-15T22:42:47.011Z,22.64
2019-06-15T22:45:17.778Z,22.58
2019-06-15T22:47:48.275Z,22.60
2019-06-15T22:50:19.102Z,22.61
2019-06-15T22:52:49.436Z,22.55
2019-06-15T22:55:19.784Z,22.61
2019-06-15T22:57:50.164Z,22.58
2019-06-15T23:00:20.497Z,22.59
2019-06-15T23:02:50.817Z,22.57
2019-06-15T23:05:21.255Z,22.57
2019-06-15T23:07:51.715Z,22.55
2019-06-15T23:10:22.124Z,22.53
2019-06-15T23:12:52.559Z,22.50
2019-06-15T23:15:22.971Z,22.46
2019-06-15T23:17:53.286Z,22.42
2019-06-15T23:20:26.832Z,22.35
2019-06-15T23:22:56.202Z,22.29
2019-06-15T23:25:27.452Z,22.29
2019-06-15T23:27:58.028Z,22.36
2019-06-15T23:30:28.311Z,22.33
2019-06-15T23:32:58.690Z,22.35
2019-06-15T23:35:34.065Z,22.40
2019-06-15T23:38:06.485Z,22.41
2019-06-15T23:40:36.428Z,22.45
2019-06-15T23:43:06.780Z,22.53
2019-06-15T23:45:37.120Z,22.60
2019-06-15T23:48:07.546Z,22.65
2019-06-15T23:50:37.939Z,22.74
2019-06-15T23:53:08.278Z,22.78
2019-06-15T23:55:38.567Z,22.77
2019-06-15T23:58:09.012Z,22.84
